createdAt,value
2019-01-25T00:01:45.251Z,101.53
2019-01-25T00:04:15.291Z,104.90
2019-01-25T00:06:45.559Z,95.70
2019-01-25T00:09:15.290Z,99.50
2019-01-25T00:11:45.062Z,98.40
2019-01-25T00:14:15.019Z,92.67
2019-01-25T00:16:45.343Z,96.37
2019-01-25T00:19:15.059Z,95.07
2019-01-25T00:21:44.958Z,100.10
2019-01-25T00:24:14.952Z,98.78
2019-01-25T00:26:45.261Z,86.27
2019-01-25T00:29:15.613Z,92.70
2019-01-25T00:31:45.557Z,99.17
2019-01-25T00:34:15.332Z,100.85
2019-01-25T00:36:45.275Z,97.07
2019-01-25T00:39:14.999Z,89.77
2019-01-25T00:41:45.646Z,102.20
2019-01-25T00:44:15.377Z,88.67
2019-01-25T00:46:45.661Z,98.47
2019-01-25T00:49:15.472Z,102.77
2019-01-25T00:51:45.679Z,91.37
2019-01-25T00:54:15.366Z,95.92
2019-01-25T00:56:45.169Z,104.07
2019-01-25T00:59:14.903Z,94.53
2019-01-25T01:01:45.039Z,95.47
2019-01-25T01:04:14.774Z,102.07
2019-01-25T01:06:44.982Z,98.33
2019-01-25T01:09:15.340Z,92.73
2019-01-25T01:11:47.135Z,101.97
2019-01-25T01:14:17.269Z,106.93
2019-01-25T01:16:50.569Z,98.45
2019-01-25T01:19:20.662Z,102.07
2019-01-25T01:21:50.538Z,98.60
2019-01-25T01:24:20.367Z,93.17
2019-01-25T01:26:59.728Z,100.13
2019-01-25T01:29:29.480Z,101.97
2019-01-25T01:32:00.359Z,95.83
2019-01-25T01:34:30.151Z,103.47
2019-01-25T01:36:59.964Z,103.00
2019-01-25T01:39:29.686Z,92.77
2019-01-25T01:42:00.397Z,99.87
2019-01-25T01:44:30.118Z,97.57
2019-01-25T01:46:59.942Z,106.97
2019-01-25T01:49:29.771Z,99.90
2019-01-25T01:52:00.383Z,94.47
2019-01-25T01:54:30.110Z,94.80
2019-01-25T01:56:59.931Z,104.90
2019-01-25T01:59:29.674Z,94.50
2019-01-25T02:01:59.983Z,101.73
2019-01-25T02:04:31.146Z,99.07
2019-01-25T02:07:00.943Z,92.00
2019-01-25T02:09:30.670Z,90.57
2019-01-25T02:12:00.406Z,99.77
2019-01-25T02:14:30.277Z,97.57
2019-01-25T02:16:59.989Z,99.03
2019-01-25T02:19:29.792Z,90.13
2019-01-25T02:22:00.034Z,88.57
2019-01-25T02:24:29.770Z,98.87
2019-01-25T02:27:00.030Z,93.07
2019-01-25T02:29:31.537Z,96.43
2019-01-25T02:32:02.163Z,106.63
2019-01-25T02:34:32.335Z,99.43
2019-01-25T02:37:02.053Z,93.67
2019-01-25T02:39:33.301Z,94.60
2019-01-25T02:42:03.031Z,95.87
2019-01-25T02:44:32.763Z,93.07
2019-01-25T02:47:02.502Z,105.60
2019-01-25T02:49:34.279Z,105.60
2019-01-25T02:52:06.051Z,92.33
2019-01-25T02:54:36.070Z,98.67
2019-01-25T02:57:06.005Z,85.93
2019-01-25T02:59:35.737Z,97.83
2019-01-25T03:02:06.690Z,94.93
2019-01-25T03:04:36.418Z,97.17
2019-01-25T03:07:06.509Z,94.07
2019-01-25T03:09:36.764Z,95.47
2019-01-25T03:12:06.579Z,94.23
2019-01-25T03:14:37.244Z,89.03
2019-01-25T03:17:07.172Z,103.55
2019-01-25T03:19:37.097Z,90.90
2019-01-25T03:22:07.402Z,90.23
2019-01-25T03:24:37.785Z,94.90
2019-01-25T03:27:10.085Z,92.67
2019-01-25T03:29:39.825Z,91.00
2019-01-25T03:32:09.559Z,91.00
2019-01-25T03:34:39.743Z,93.13
2019-01-25T03:37:09.508Z,93.37
2019-01-25T03:39:39.364Z,99.57
2019-01-25T03:42:09.171Z,101.90
2019-01-25T03:44:39.494Z,94.37
2019-01-25T03:47:09.802Z,100.50
2019-01-25T03:49:39.533Z,102.97
2019-01-25T03:52:09.704Z,99.50
2019-01-25T03:54:39.439Z,96.93
2019-01-25T03:57:09.161Z,95.70
2019-01-25T03:59:39.471Z,105.17
2019-01-25T04:02:09.807Z,96.20
2019-01-25T04:04:39.549Z,102.27
2019-01-25T04:07:09.519Z,91.42
2019-01-25T04:09:39.668Z,97.27
2019-01-25T04:12:09.854Z,98.82
2019-01-25T04:14:39.668Z,100.70
2019-01-25T04:17:10.121Z,82.37
2019-01-25T04:19:40.551Z,107.37
2019-01-25T04:22:10.555Z,96.90
2019-01-25T04:24:40.831Z,99.85
2019-01-25T04:27:10.568Z,99.23
2019-01-25T04:29:40.843Z,93.53
2019-01-25T04:32:10.575Z,100.30
2019-01-25T04:34:42.143Z,112.20
2019-01-25T04:37:12.891Z,103.90
2019-01-25T04:39:43.126Z,104.80
2019-01-25T04:42:13.438Z,109.57
2019-01-25T04:44:43.501Z,109.77
2019-01-25T04:47:13.250Z,106.20
2019-01-25T04:49:43.969Z,104.67
2019-01-25T04:52:14.986Z,94.43
2019-01-25T04:54:44.741Z,100.83
2019-01-25T04:57:14.548Z,104.90
2019-01-25T04:59:44.805Z,95.00
2019-01-25T05:02:14.535Z,100.42
2019-01-25T05:04:44.745Z,97.93
2019-01-25T05:07:14.453Z,101.33
2019-01-25T05:09:44.141Z,105.90
2019-01-25T05:12:13.810Z,98.53
2019-01-25T05:14:43.762Z,100.77
2019-01-25T05:17:13.521Z,92.42
2019-01-25T05:19:43.799Z,92.30
2019-01-25T05:22:13.487Z,103.00
2019-01-25T05:24:44.340Z,105.27
2019-01-25T05:27:16.798Z,103.00
2019-01-25T05:29:52.163Z,105.57
2019-01-25T05:32:22.156Z,101.90
2019-01-25T05:34:51.846Z,98.17
2019-01-25T05:37:23.493Z,96.03
2019-01-25T05:39:53.499Z,106.93
2019-01-25T05:42:23.195Z,94.00
2019-01-25T05:44:52.876Z,102.90
2019-01-25T05:47:22.558Z,99.47
2019-01-25T05:49:52.243Z,101.27
2019-01-25T05:52:22.028Z,104.55
2019-01-25T05:54:51.709Z,107.93
2019-01-25T05:57:22.590Z,102.10
2019-01-25T05:59:57.499Z,104.30
2019-01-25T06:02:27.709Z,98.53
2019-01-25T06:04:58.691Z,100.87
2019-01-25T06:07:28.754Z,101.07
2019-01-25T06:09:58.439Z,106.23
2019-01-25T06:12:28.118Z,109.90
2019-01-25T06:14:57.823Z,100.33
2019-01-25T06:17:28.445Z,99.63
2019-01-25T06:19:59.261Z,104.87
2019-01-25T06:22:37.297Z,106.23
2019-01-25T06:25:12.891Z,100.17
2019-01-25T06:27:44.136Z,101.43
2019-01-25T06:30:14.180Z,107.67
2019-01-25T06:32:44.009Z,98.93
2019-01-25T06:35:13.761Z,99.35
2019-01-25T06:37:43.509Z,99.77
2019-01-25T06:40:13.768Z,99.47
2019-01-25T06:42:43.915Z,104.17
2019-01-25T06:45:15.361Z,93.42
2019-01-25T06:47:45.555Z,101.23
2019-01-25T06:50:15.690Z,93.07
2019-01-25T06:52:45.454Z,97.42
2019-01-25T06:55:16.210Z,88.62
2019-01-25T06:58:01.552Z,97.90
2019-01-25T07:00:33.837Z,98.93
2019-01-25T07:03:04.873Z,91.97
2019-01-25T07:05:34.541Z,95.33
2019-01-25T07:08:08.188Z,108.73
2019-01-25T07:10:37.873Z,98.00
2019-01-25T07:13:08.554Z,97.90
2019-01-25T07:15:52.132Z,116.10
2019-01-25T07:18:23.210Z,100.43
2019-01-25T07:20:52.894Z,93.87
2019-01-25T07:23:22.578Z,105.22
2019-01-25T07:25:52.245Z,98.83
2019-01-25T07:28:23.829Z,106.40
2019-01-25T07:30:53.892Z,109.93
2019-01-25T07:33:24.645Z,106.15
2019-01-25T07:35:54.469Z,101.43
2019-01-25T07:38:24.356Z,103.23
2019-01-25T07:40:54.707Z,100.50
2019-01-25T07:43:24.456Z,108.33
2019-01-25T07:45:54.448Z,110.73
2019-01-25T07:48:24.173Z,106.43
2019-01-25T07:50:54.414Z,115.13
2019-01-25T07:53:24.496Z,109.72
2019-01-25T07:55:54.189Z,103.33
2019-01-25T07:58:24.359Z,110.22
2019-01-25T08:00:54.117Z,96.40
2019-01-25T08:03:24.381Z,106.17
2019-01-25T08:05:54.027Z,115.13
2019-01-25T08:08:24.413Z,107.67
2019-01-25T08:10:54.793Z,106.33
2019-01-25T08:13:25.058Z,110.20
2019-01-25T08:15:54.757Z,110.17
2019-01-25T08:18:24.589Z,116.73
2019-01-25T08:20:54.858Z,117.80
2019-01-25T08:23:24.526Z,108.17
2019-01-25T08:25:56.659Z,107.87
2019-01-25T08:28:26.462Z,106.40
2019-01-25T08:30:56.825Z,90.53
2019-01-25T08:33:26.519Z,109.83
2019-01-25T08:35:56.432Z,106.50
2019-01-25T08:38:26.144Z,103.17
2019-01-25T08:40:56.173Z,96.13
2019-01-25T08:43:25.848Z,107.07
2019-01-25T08:45:56.725Z,97.77
2019-01-25T08:48:29.223Z,95.63
2019-01-25T08:50:59.197Z,93.50
2019-01-25T08:53:29.297Z,88.87
2019-01-25T08:55:59.765Z,91.97
2019-01-25T08:58:29.922Z,95.83
2019-01-25T09:00:59.679Z,102.70
2019-01-25T09:03:29.438Z,96.20
2019-01-25T09:06:09.322Z,93.13
2019-01-25T09:08:39.154Z,83.27
2019-01-25T09:11:09.393Z,93.33
2019-01-25T09:13:39.085Z,82.17
2019-01-25T09:16:09.482Z,88.97
2019-01-25T09:18:39.151Z,90.27
2019-01-25T09:21:09.291Z,83.57
2019-01-25T09:23:44.787Z,84.40
2019-01-25T09:31:56.857Z,85.60
2019-01-25T09:34:27.255Z,92.10
2019-01-25T09:36:56.943Z,84.03
2019-01-25T09:39:30.235Z,92.70
2019-01-25T09:42:00.826Z,87.07
2019-01-25T09:44:30.902Z,86.00
2019-01-25T09:47:00.653Z,81.73
2019-01-25T09:49:31.041Z,85.40
2019-01-25T09:52:00.729Z,81.23
2019-01-25T09:54:30.498Z,93.87
2019-01-25T09:57:01.297Z,83.03
2019-01-25T10:02:25.208Z,84.27
2019-01-25T10:04:55.189Z,81.77
2019-01-25T10:07:25.027Z,81.50
2019-01-25T10:09:54.894Z,76.40
2019-01-25T10:12:24.570Z,85.07
2019-01-25T10:14:54.267Z,72.67
2019-01-25T10:17:23.944Z,81.87
2019-01-25T10:19:53.626Z,87.63
2019-01-25T10:22:23.313Z,84.77
2019-01-25T10:24:54.375Z,78.70
2019-01-25T10:27:24.395Z,85.10
2019-01-25T10:29:54.362Z,80.30
2019-01-25T10:32:24.111Z,83.57
2019-01-25T10:34:53.816Z,80.30
2019-01-25T10:37:23.726Z,89.77
2019-01-25T10:39:53.403Z,77.20
2019-01-25T10:42:23.091Z,85.70
2019-01-25T10:44:52.775Z,78.47
2019-01-25T10:47:23.415Z,89.13
2019-01-25T10:49:53.112Z,86.83
2019-01-25T10:52:22.961Z,78.87
2019-01-25T10:54:52.729Z,85.80
2019-01-25T10:57:22.484Z,88.37
2019-01-25T10:59:52.431Z,78.07
2019-01-25T11:02:22.380Z,95.93
2019-01-25T11:04:52.143Z,78.80
2019-01-25T11:07:21.827Z,88.67
2019-01-25T11:09:51.764Z,99.10
2019-01-25T11:12:21.917Z,88.33
2019-01-25T11:14:51.605Z,92.60
2019-01-25T11:17:21.290Z,84.90
2019-01-25T11:19:51.046Z,91.77
2019-01-25T11:22:20.730Z,93.47
2019-01-25T11:24:50.481Z,93.43
2019-01-25T11:27:20.162Z,90.72
2019-01-25T11:29:50.882Z,92.43
2019-01-25T11:32:21.318Z,96.55
2019-01-25T11:34:51.374Z,93.47
2019-01-25T11:37:21.060Z,104.78
2019-01-25T11:39:52.689Z,85.70
2019-01-25T11:42:22.396Z,97.97
2019-01-25T11:44:52.344Z,91.13
2019-01-25T11:47:22.742Z,95.50
2019-01-25T11:49:52.430Z,97.40
2019-01-25T11:52:25.145Z,104.10
2019-01-25T11:54:54.406Z,95.93
2019-01-25T11:57:24.120Z,100.67
2019-01-25T11:59:54.772Z,105.13
2019-01-25T12:02:24.735Z,102.67
2019-01-25T12:04:55.411Z,100.80
2019-01-25T12:07:25.098Z,100.83
2019-01-25T12:09:55.121Z,100.63
2019-01-25T12:12:25.755Z,99.20
2019-01-25T12:14:55.409Z,99.57
2019-01-25T12:17:26.079Z,103.20
2019-01-25T12:19:57.264Z,119.40
2019-01-25T12:22:27.393Z,122.13
2019-01-25T12:27:48.141Z,109.03
2019-01-25T12:30:23.770Z,124.00
2019-01-25T12:32:53.578Z,125.80
2019-01-25T12:35:23.367Z,123.00
2019-01-25T12:37:53.147Z,121.53
2019-01-25T12:40:22.907Z,122.75
2019-01-25T12:42:52.600Z,135.97
2019-01-25T12:45:24.324Z,113.32
2019-01-25T12:47:54.426Z,130.87
2019-01-25T12:50:26.764Z,125.82
2019-01-25T12:52:56.540Z,119.03
2019-01-25T12:55:26.323Z,127.83
2019-01-25T12:57:56.016Z,147.00
2019-01-25T13:00:25.854Z,128.33
2019-01-25T13:02:55.875Z,131.77
2019-01-25T13:05:27.003Z,154.37
2019-01-25T13:07:57.147Z,134.73
2019-01-25T13:10:27.033Z,162.17
2019-01-25T13:12:56.865Z,160.47
2019-01-25T13:15:26.870Z,171.63
2019-01-25T13:17:56.699Z,145.40
2019-01-25T13:20:28.393Z,148.20
2019-01-25T13:22:58.470Z,161.00
2019-01-25T13:25:47.244Z,130.97
2019-01-25T13:28:16.672Z,143.40
2019-01-25T13:30:46.359Z,146.30
2019-01-25T13:33:17.836Z,139.97
2019-01-25T13:35:47.578Z,136.47
2019-01-25T13:38:17.270Z,140.25
2019-01-25T13:40:47.141Z,136.80
2019-01-25T13:43:17.069Z,134.80
2019-01-25T13:45:46.888Z,135.53
2019-01-25T13:48:16.769Z,147.13
2019-01-25T13:50:58.714Z,127.27
2019-01-25T13:53:33.002Z,123.57
2019-01-25T13:56:03.598Z,131.10
2019-01-25T13:58:33.489Z,131.17
2019-01-25T14:01:03.767Z,127.33
2019-01-25T14:03:33.778Z,125.70
2019-01-25T14:06:03.521Z,120.50
2019-01-25T14:08:33.283Z,123.97
2019-01-25T14:11:02.958Z,124.23
2019-01-25T14:13:34.181Z,111.17
2019-01-25T14:16:04.566Z,124.07
2019-01-25T14:18:34.254Z,109.23
2019-01-25T14:21:05.218Z,115.30
2019-01-25T14:23:35.504Z,104.20
2019-01-25T14:26:05.965Z,101.70
2019-01-25T14:28:35.653Z,101.23
2019-01-25T14:31:05.480Z,90.03
2019-01-25T14:33:35.248Z,80.77
2019-01-25T14:36:05.510Z,84.03
2019-01-25T14:38:35.184Z,87.30
2019-01-25T14:41:05.352Z,80.30
2019-01-25T14:43:35.620Z,74.73
2019-01-25T14:46:05.738Z,70.63
2019-01-25T14:54:09.615Z,73.75
2019-01-25T14:56:39.301Z,73.30
2019-01-25T14:59:09.677Z,64.77
2019-01-25T15:04:39.344Z,65.00
2019-01-25T15:07:09.554Z,61.20
2019-01-25T15:09:39.329Z,64.40
2019-01-25T15:12:09.684Z,65.27
2019-01-25T15:14:40.614Z,65.23
2019-01-25T15:17:10.466Z,66.00
2019-01-25T15:19:40.974Z,74.53
2019-01-25T15:22:11.498Z,73.93
2019-01-25T15:24:41.983Z,67.93
2019-01-25T15:27:11.725Z,73.70
2019-01-25T15:35:22.561Z,65.00
2019-01-25T15:37:52.531Z,75.28
2019-01-25T15:40:22.407Z,69.37
2019-01-25T15:42:52.612Z,72.57
2019-01-25T15:45:23.118Z,80.10
2019-01-25T15:47:52.968Z,62.23
2019-01-25T15:50:27.604Z,75.32
2019-01-25T15:52:57.722Z,70.87
2019-01-25T15:55:27.864Z,79.93
2019-01-25T15:57:57.682Z,77.27
2019-01-25T16:00:29.085Z,69.05
2019-01-25T16:02:58.805Z,64.53
2019-01-25T16:05:28.842Z,72.03
2019-01-25T16:07:58.589Z,75.87
2019-01-25T16:10:28.352Z,70.03
2019-01-25T16:12:58.089Z,70.43
2019-01-25T16:15:29.818Z,63.27
2019-01-25T16:17:59.840Z,71.13
2019-01-25T16:20:30.154Z,57.93
2019-01-25T16:22:59.976Z,58.23
2019-01-25T16:25:31.752Z,68.53
2019-01-25T16:28:01.514Z,62.30
2019-01-25T16:30:39.088Z,67.30
2019-01-25T16:33:08.988Z,54.40
2019-01-25T16:35:38.682Z,57.60
2019-01-25T16:38:08.444Z,61.63
2019-01-25T16:40:38.126Z,59.60
2019-01-25T16:43:10.766Z,54.90
2019-01-25T16:45:42.613Z,58.13
2019-01-25T16:48:12.953Z,60.73
2019-01-25T16:50:42.714Z,62.23
2019-01-25T16:53:14.692Z,62.80
2019-01-25T16:55:45.107Z,54.05
2019-01-25T16:58:14.799Z,57.57
2019-01-25T17:00:53.348Z,60.98
2019-01-25T17:03:23.859Z,50.87
2019-01-25T17:05:54.611Z,53.87
2019-01-25T17:08:24.405Z,67.70
2019-01-25T17:10:54.539Z,56.77
2019-01-25T17:13:24.558Z,57.73
2019-01-25T17:15:55.465Z,60.15
2019-01-25T17:18:25.923Z,57.17
2019-01-25T17:20:55.616Z,53.83
2019-01-25T17:23:25.303Z,56.77
2019-01-25T17:25:55.335Z,50.03
2019-01-25T17:28:27.146Z,49.33
2019-01-25T17:30:56.882Z,46.07
2019-01-25T17:33:48.725Z,49.40
2019-01-25T17:36:18.410Z,50.57
2019-01-25T17:41:43.028Z,41.50
2019-01-25T17:44:12.844Z,45.57
2019-01-25T17:46:42.912Z,44.98
2019-01-25T17:49:12.670Z,55.20
2019-01-25T17:51:42.446Z,45.20
2019-01-25T17:54:12.425Z,44.00
2019-01-25T17:56:42.630Z,46.23
2019-01-25T17:59:12.760Z,43.73
2019-01-25T18:01:42.568Z,40.73
2019-01-25T18:04:12.742Z,43.47
2019-01-25T18:06:43.464Z,48.33
2019-01-25T18:09:13.298Z,44.27
2019-01-25T18:11:43.035Z,45.20
2019-01-25T18:14:13.720Z,46.80
2019-01-25T18:16:43.759Z,56.23
2019-01-25T18:19:13.434Z,44.73
2019-01-25T18:21:43.536Z,45.63
2019-01-25T18:24:13.213Z,47.03
2019-01-25T18:26:42.930Z,47.33
2019-01-25T18:29:27.247Z,54.87
2019-01-25T18:31:56.914Z,54.00
2019-01-25T18:34:26.599Z,49.63
2019-01-25T18:36:56.820Z,57.10
2019-01-25T18:39:27.098Z,53.00
2019-01-25T18:41:56.855Z,56.00
2019-01-25T18:44:26.528Z,66.37
2019-01-25T18:46:56.259Z,55.85
2019-01-25T18:49:25.933Z,72.90
2019-01-25T18:51:56.565Z,69.57
2019-01-25T18:54:26.449Z,68.53
2019-01-25T18:56:56.494Z,70.57
2019-01-25T18:59:26.600Z,60.13
2019-01-25T19:01:56.929Z,64.12
2019-01-25T19:04:31.334Z,76.07
2019-01-25T19:07:01.337Z,74.57
2019-01-25T19:09:32.232Z,73.07
2019-01-25T19:12:02.331Z,66.10
2019-01-25T19:14:32.064Z,73.10
2019-01-25T19:17:01.900Z,58.47
2019-01-25T19:19:32.742Z,69.43
2019-01-25T19:22:03.084Z,63.43
2019-01-25T19:24:33.996Z,65.40
2019-01-25T19:27:03.666Z,69.90
2019-01-25T19:29:33.700Z,82.07
2019-01-25T19:32:04.399Z,68.67
2019-01-25T19:34:34.293Z,69.93
2019-01-25T19:37:05.213Z,70.57
2019-01-25T19:39:36.053Z,77.77
2019-01-25T19:42:06.419Z,61.07
2019-01-25T19:44:36.717Z,65.30
2019-01-25T19:47:06.528Z,64.43
2019-01-25T19:49:36.714Z,67.50
2019-01-25T19:52:07.059Z,75.27
2019-01-25T19:54:36.746Z,73.03
2019-01-25T19:57:07.128Z,67.13
2019-01-25T19:59:36.821Z,70.37
2019-01-25T20:02:06.641Z,62.33
2019-01-25T20:04:36.386Z,61.20
2019-01-25T20:07:06.221Z,63.67
2019-01-25T20:09:35.956Z,62.30
2019-01-25T20:12:06.248Z,64.97
2019-01-25T20:14:35.913Z,64.53
2019-01-25T20:19:59.048Z,50.53
2019-01-25T20:22:28.716Z,53.57
2019-01-25T20:25:33.417Z,52.63
2019-01-25T20:28:03.569Z,48.47
2019-01-25T20:30:33.642Z,47.73
2019-01-25T20:33:03.712Z,49.90
2019-01-25T20:35:35.621Z,50.10
2019-01-25T20:38:06.404Z,56.93
2019-01-25T20:40:36.604Z,41.33
2019-01-25T20:43:06.429Z,41.83
2019-01-25T20:45:37.916Z,43.58
2019-01-25T20:48:08.007Z,45.20
2019-01-25T20:50:37.931Z,43.57
2019-01-25T20:53:09.478Z,38.77
2019-01-25T20:55:39.315Z,41.93
2019-01-25T20:58:09.472Z,39.13
2019-01-25T21:00:40.015Z,45.93
2019-01-25T21:03:12.154Z,34.03
2019-01-25T21:05:41.832Z,32.10
2019-01-25T21:08:11.857Z,42.25
2019-01-25T21:10:41.813Z,41.27
2019-01-25T21:13:12.114Z,39.47
2019-01-25T21:15:42.354Z,35.47
2019-01-25T21:18:12.177Z,38.60
2019-01-25T21:20:44.194Z,39.97
2019-01-25T21:23:14.138Z,40.20
2019-01-25T21:25:44.793Z,34.43
2019-01-25T21:28:14.628Z,40.75
2019-01-25T21:30:44.547Z,30.20
2019-01-25T21:33:14.528Z,36.53
2019-01-25T21:35:44.293Z,42.62
2019-01-25T21:38:14.047Z,43.68
2019-01-25T21:40:44.198Z,42.70
2019-01-25T21:43:13.947Z,41.27
2019-01-25T21:45:43.644Z,55.90
2019-01-25T21:48:17.488Z,53.53
2019-01-25T21:50:48.716Z,42.60
2019-01-25T21:53:18.484Z,48.07
2019-01-25T21:55:48.584Z,50.47
2019-01-25T21:58:18.334Z,40.63
2019-01-25T22:00:48.009Z,36.00
2019-01-25T22:03:17.748Z,44.15
2019-01-25T22:05:47.420Z,55.93
2019-01-25T22:08:17.421Z,46.73
2019-01-25T22:10:49.386Z,45.50
2019-01-25T22:13:19.540Z,39.50
2019-01-25T22:15:51.045Z,48.20
2019-01-25T22:18:20.716Z,54.23
2019-01-25T22:20:50.487Z,46.37
2019-01-25T22:23:20.314Z,38.50
2019-01-25T22:25:50.476Z,60.13
2019-01-25T22:28:20.529Z,54.33
2019-01-25T22:30:50.557Z,55.73
2019-01-25T22:33:20.276Z,48.30
2019-01-25T22:35:50.401Z,54.00
2019-01-25T22:38:20.073Z,42.90
2019-01-25T22:40:50.050Z,46.77
2019-01-25T22:43:19.741Z,47.38
2019-01-25T22:45:49.433Z,46.60
2019-01-25T22:48:19.181Z,44.27
2019-01-25T22:50:48.936Z,42.23
2019-01-25T22:53:18.612Z,51.47
2019-01-25T22:55:48.370Z,45.00
2019-01-25T22:58:18.154Z,42.73
2019-01-25T23:01:27.554Z,47.90
2019-01-25T23:04:43.547Z,48.40
2019-01-25T23:07:16.166Z,42.77
2019-01-25T23:10:09.045Z,38.20
2019-01-25T23:12:38.942Z,55.57
2019-01-25T23:15:10.952Z,51.30
2019-01-25T23:17:40.625Z,39.83
2019-01-25T23:22:41.733Z,42.10
2019-01-25T23:25:11.790Z,50.40
2019-01-25T23:27:41.466Z,47.93
2019-01-25T23:30:13.672Z,49.50
2019-01-25T23:32:43.348Z,58.40
2019-01-25T23:35:13.271Z,46.00
2019-01-25T23:37:42.945Z,56.17
2019-01-25T23:40:14.324Z,57.03
2019-01-25T23:42:44.004Z,49.17
2019-01-25T23:45:13.741Z,51.30
2019-01-25T23:47:43.409Z,52.57
2019-01-25T23:50:13.379Z,47.03
2019-01-25T23:52:43.126Z,52.50
2019-01-25T23:55:12.986Z,70.15
2019-01-25T23:57:42.613Z,45.63
